Time;durP1;ratioP1;P1;durP2;ratioP2;P2;SDS_P1;SDS_P2;PMS_P1;PMS_P2;Temp;Humidity;BMP_temperature;BMP_pressure;BME280_temperature;BME280_humidity;BME280_pressure;Samples;Min_cycle;Max_cycle;Signal;HPM_P1;HPM_P2
2023/05/06 00:00:13;;;;;;;43.08;31.75;;;11.70;99.90;;;;;;4955475;28;20453;-63
2023/05/06 00:02:39;;;;;;;40.60;31.40;;;11.70;99.90;;;;;;4931811;28;20252;-63
2023/05/06 00:05:06;;;;;;;43.30;31.35;;;12.10;99.90;;;;;;4953429;28;20258;-63
2023/05/06 00:07:31;;;;;;;40.75;32.13;;;12.00;99.90;;;;;;4964910;28;20255;-63
2023/05/06 00:09:57;;;;;;;44.95;33.53;;;11.90;99.90;;;;;;4987112;28;20104;-64
2023/05/06 00:12:23;;;;;;;62.00;39.08;;;11.70;99.90;;;;;;4953412;28;20125;-64
2023/05/06 00:14:48;;;;;;;49.03;35.22;;;12.00;99.90;;;;;;4953830;28;20226;-63
2023/05/06 00:17:14;;;;;;;55.58;37.00;;;11.70;99.90;;;;;;4937945;28;20327;-64
2023/05/06 00:19:40;;;;;;;58.70;39.85;;;11.80;99.90;;;;;;4953600;28;20126;-64
2023/05/06 00:22:05;;;;;;;55.60;40.65;;;11.90;99.90;;;;;;4971781;28;20199;-64
2023/05/06 00:24:31;;;;;;;55.35;39.40;;;11.90;99.90;;;;;;4954476;28;20520;-64
2023/05/06 00:26:57;;;;;;;57.20;39.15;;;12.00;99.90;;;;;;4954853;28;20489;-63
2023/05/06 00:29:23;;;;;;;66.97;38.58;;;12.00;99.90;;;;;;4953080;28;20050;-64
2023/05/06 00:31:48;;;;;;;54.03;36.63;;;11.70;99.90;;;;;;4955287;28;20556;-64
2023/05/06 00:34:14;;;;;;;62.95;37.85;;;11.80;99.90;;;;;;4952932;28;20042;-63
2023/05/06 00:36:41;;;;;;;59.33;37.72;;;11.90;99.90;;;;;;4956034;28;20050;-63
2023/05/06 00:39:07;;;;;;;56.50;37.90;;;11.90;99.90;;;;;;4952568;28;20042;-63
2023/05/06 00:41:33;;;;;;;59.80;38.13;;;11.70;99.90;;;;;;4938643;28;20058;-63
2023/05/06 00:43:58;;;;;;;54.92;37.78;;;12.10;99.90;;;;;;4984733;28;20283;-64
2023/05/06 00:46:24;;;;;;;52.55;36.60;;;11.80;99.90;;;;;;4952469;28;20226;-64
2023/05/06 00:48:51;;;;;;;60.13;37.63;;;11.80;99.90;;;;;;4984644;28;20105;-63
2023/05/06 00:51:17;;;;;;;66.68;40.90;;;12.10;99.90;;;;;;4937056;28;20034;-63
2023/05/06 00:53:45;;;;;;;65.30;39.15;;;12.00;99.90;;;;;;4952050;28;20128;-64
2023/05/06 00:56:11;;;;;;;58.95;38.80;;;11.60;99.90;;;;;;4973163;28;20516;-63
2023/05/06 00:58:37;;;;;;;64.30;39.38;;;11.80;99.90;;;;;;4953256;28;20050;-63
2023/05/06 01:01:03;;;;;;;61.50;39.42;;;11.60;99.90;;;;;;4954579;28;20043;-63
2023/05/06 01:03:30;;;;;;;88.35;44.53;;;11.50;99.90;;;;;;4951564;28;20584;-63
2023/05/06 01:06:17;;;;;;;59.65;38.13;;;11.70;99.90;;;;;;4985172;28;20046;-64
2023/05/06 01:08:57;;;;;;;69.32;41.30;;;11.70;99.90;;;;;;4951197;28;20318;-63
2023/05/06 01:11:42;;;;;;;56.60;39.53;;;11.40;99.90;;;;;;4986041;28;20047;-63
2023/05/06 01:14:15;;;;;;;55.53;37.38;;;11.50;99.90;;;;;;4951718;28;20077;-63
2023/05/06 01:16:41;;;;;;;70.18;43.45;;;11.40;99.90;;;;;;4951665;28;20473;-63
2023/05/06 01:19:24;;;;;;;77.80;45.25;;;11.50;99.90;;;;;;4951971;28;20291;-64
2023/05/06 01:21:53;;;;;;;72.13;44.00;;;11.30;99.90;;;;;;4953598;28;20279;-63
2023/05/06 01:24:19;;;;;;;81.25;45.53;;;11.20;99.90;;;;;;4952390;28;20053;-64
2023/05/06 01:26:44;;;;;;;124.32;53.63;;;11.10;99.90;;;;;;4951564;28;20417;-63
2023/05/06 01:29:11;;;;;;;84.97;46.67;;;11.10;99.90;;;;;;4936539;28;20507;-63
2023/05/06 01:31:49;;;;;;;88.43;46.45;;;11.00;99.90;;;;;;4969551;28;20066;-63
2023/05/06 01:34:30;;;;;;;84.57;46.60;;;11.20;99.90;;;;;;4984818;28;20049;-63
2023/05/06 01:36:57;;;;;;;78.57;44.25;;;11.20;99.90;;;;;;4967015;28;20145;-64
2023/05/06 01:39:30;;;;;;;76.28;45.78;;;11.20;99.90;;;;;;4968852;28;20038;-63
2023/05/06 01:41:59;;;;;;;69.30;43.42;;;10.90;99.90;;;;;;4937088;28;20038;-64
2023/05/06 01:44:27;;;;;;;99.40;48.55;;;10.90;99.90;;;;;;4952138;28;20046;-64
2023/05/06 01:46:55;;;;;;;77.22;43.60;;;11.20;99.90;;;;;;4952005;28;20083;-63
2023/05/06 01:49:24;;;;;;;84.07;45.80;;;10.80;99.90;;;;;;4936994;28;20538;-63
2023/05/06 01:51:51;;;;;;;89.97;47.65;;;11.20;99.90;;;;;;4954267;28;20046;-63
2023/05/06 01:54:17;;;;;;;87.57;46.22;;;11.10;99.90;;;;;;4952730;28;20047;-63
2023/05/06 01:56:44;;;;;;;87.72;46.53;;;10.80;99.90;;;;;;4952302;28;20513;-63
2023/05/06 01:59:10;;;;;;;109.15;51.28;;;11.10;99.90;;;;;;4951396;28;20341;-63
2023/05/06 02:01:35;;;;;;;95.60;49.55;;;11.00;99.90;;;;;;4935451;28;20227;-64
2023/05/06 02:04:01;;;;;;;85.97;47.40;;;11.10;99.90;;;;;;4962750;28;20433;-63
2023/05/06 02:06:27;;;;;;;87.97;48.25;;;11.00;99.90;;;;;;4952558;28;20038;-63
2023/05/06 02:08:52;;;;;;;91.38;49.40;;;11.10;99.90;;;;;;4936079;28;20044;-63
2023/05/06 02:11:18;;;;;;;89.90;48.10;;;10.90;99.90;;;;;;4954247;28;20361;-64
2023/05/06 02:13:44;;;;;;;106.95;50.88;;;11.00;99.90;;;;;;4967558;28;20057;-64
2023/05/06 02:16:10;;;;;;;93.32;50.92;;;11.00;99.90;;;;;;4966465;28;20137;-63
2023/05/06 02:18:35;;;;;;;91.63;49.65;;;11.00;99.90;;;;;;4951281;28;20437;-63
2023/05/06 02:21:02;;;;;;;119.25;54.50;;;11.00;99.90;;;;;;4951311;28;20122;-63
2023/05/06 02:23:28;;;;;;;113.70;52.97;;;10.80;99.90;;;;;;4950004;28;20202;-65
2023/05/06 02:25:54;;;;;;;114.50;51.85;;;10.70;99.90;;;;;;4952821;28;20077;-63
2023/05/06 02:28:20;;;;;;;111.82;52.95;;;10.50;99.90;;;;;;4951486;28;20113;-63
2023/05/06 02:30:45;;;;;;;101.57;50.00;;;10.80;99.90;;;;;;4951687;28;20037;-64
2023/05/06 02:33:11;;;;;;;83.45;47.42;;;10.50;99.90;;;;;;4953762;28;20046;-63
2023/05/06 02:35:37;;;;;;;80.80;48.97;;;10.80;99.90;;;;;;4938497;28;20194;-64
2023/05/06 02:38:03;;;;;;;85.80;49.03;;;10.50;99.90;;;;;;4955389;28;20039;-63
2023/05/06 02:40:29;;;;;;;96.70;52.83;;;10.60;99.90;;;;;;4957342;28;20117;-62
2023/05/06 02:42:55;;;;;;;89.05;52.10;;;10.60;99.90;;;;;;4958036;28;20090;-63
2023/05/06 02:45:20;;;;;;;113.47;57.55;;;10.70;99.90;;;;;;4954639;28;20269;-63
2023/05/06 02:47:46;;;;;;;109.53;54.13;;;10.40;99.90;;;;;;4956492;28;20042;-65
2023/05/06 02:50:12;;;;;;;100.97;53.90;;;10.40;99.90;;;;;;4955414;28;20069;-63
2023/05/06 02:52:37;;;;;;;117.40;56.30;;;10.60;99.90;;;;;;4955127;28;20324;-63
2023/05/06 02:55:04;;;;;;;115.72;54.40;;;10.20;99.90;;;;;;4955969;28;20042;-62
2023/05/06 02:57:30;;;;;;;127.13;58.63;;;10.50;99.90;;;;;;4956434;28;20643;-62
2023/05/06 02:59:55;;;;;;;132.38;58.35;;;10.50;99.90;;;;;;4954266;28;20038;-64
2023/05/06 03:02:21;;;;;;;83.13;48.95;;;10.60;99.90;;;;;;4986328;28;20410;-63
2023/05/06 03:04:47;;;;;;;98.93;53.70;;;10.60;99.90;;;;;;4956016;28;20338;-63
2023/05/06 03:07:12;;;;;;;85.68;50.85;;;10.50;99.90;;;;;;4954536;28;20436;-62
2023/05/06 03:09:38;;;;;;;90.18;49.65;;;10.70;99.90;;;;;;4955950;28;20042;-64
2023/05/06 03:12:05;;;;;;;97.63;52.22;;;10.70;99.90;;;;;;4956057;28;20130;-63
2023/05/06 03:14:30;;;;;;;99.63;48.17;;;10.90;99.90;;;;;;4955507;28;20035;-63
2023/05/06 03:16:56;;;;;;;93.22;52.92;;;10.80;99.90;;;;;;4955840;28;20098;-63
2023/05/06 03:19:22;;;;;;;102.50;52.95;;;11.00;99.90;;;;;;4939538;28;20050;-65
2023/05/06 03:21:48;;;;;;;86.65;48.17;;;10.80;99.90;;;;;;4954491;28;20177;-63
2023/05/06 03:24:14;;;;;;;98.50;50.88;;;10.70;99.90;;;;;;4956025;28;20689;-63
2023/05/06 03:26:40;;;;;;;105.10;51.47;;;10.80;99.90;;;;;;4986240;28;20149;-63
2023/05/06 03:29:05;;;;;;;109.13;52.38;;;10.90;99.90;;;;;;4940713;28;20043;-63
2023/05/06 03:31:31;;;;;;;121.88;59.28;;;11.00;99.90;;;;;;4953870;28;20420;-63
2023/05/06 03:33:57;;;;;;;100.15;50.72;;;11.00;99.90;;;;;;4954163;28;20511;-64
2023/05/06 03:36:26;;;;;;;112.07;54.72;;;11.00;99.90;;;;;;4955100;28;20042;-63
2023/05/06 03:38:52;;;;;;;137.38;61.47;;;11.00;99.90;;;;;;4956331;28;20386;-64
2023/05/06 03:41:18;;;;;;;122.75;57.40;;;10.80;99.90;;;;;;4955276;28;20680;-63
2023/05/06 03:43:44;;;;;;;160.85;61.55;;;11.00;99.90;;;;;;4953967;28;20050;-64
2023/05/06 03:46:10;;;;;;;141.85;57.03;;;11.00;99.90;;;;;;4953492;28;20065;-63
2023/05/06 03:48:36;;;;;;;144.55;58.95;;;10.60;99.90;;;;;;4937797;28;20046;-63
2023/05/06 03:51:02;;;;;;;137.77;58.65;;;10.50;99.90;;;;;;4953582;28;20038;-63
2023/05/06 03:53:28;;;;;;;142.07;56.65;;;10.60;99.90;;;;;;4953826;28;20146;-63
2023/05/06 03:55:53;;;;;;;163.73;66.13;;;10.50;99.90;;;;;;4954264;28;20057;-63
2023/05/06 03:58:19;;;;;;;111.95;53.28;;;10.50;99.90;;;;;;4956032;28;20038;-63
2023/05/06 04:00:45;;;;;;;141.15;58.70;;;10.60;99.90;;;;;;4952899;28;20506;-64
2023/05/06 04:03:11;;;;;;;147.82;60.38;;;10.40;99.90;;;;;;4954153;28;20527;-63
2023/05/06 04:05:36;;;;;;;184.70;64.55;;;10.60;99.90;;;;;;4954384;28;20050;-63
2023/05/06 04:08:03;;;;;;;132.35;57.63;;;10.50;99.90;;;;;;4954296;28;20039;-63
2023/05/06 04:10:30;;;;;;;134.73;53.92;;;10.60;99.90;;;;;;4953972;28;20645;-63
2023/05/06 04:12:55;;;;;;;124.70;54.50;;;10.50;99.90;;;;;;4969521;28;20462;-63
2023/05/06 04:15:22;;;;;;;165.23;62.10;;;10.60;99.90;;;;;;4936878;28;20633;-63
2023/05/06 04:17:48;;;;;;;186.65;69.28;;;10.40;99.90;;;;;;4952458;28;20058;-63
2023/05/06 04:20:15;;;;;;;172.23;69.00;;;10.70;99.90;;;;;;4969629;28;20069;-63
2023/05/06 04:22:40;;;;;;;137.50;62.30;;;10.80;99.90;;;;;;4937312;28;20130;-64
2023/05/06 04:25:07;;;;;;;122.88;62.00;;;10.90;99.90;;;;;;4953858;28;20772;-63
2023/05/06 04:27:33;;;;;;;107.00;56.03;;;10.70;99.90;;;;;;4952420;28;20753;-63
2023/05/06 04:29:59;;;;;;;106.28;56.35;;;11.00;99.90;;;;;;4939877;28;20081;-63
2023/05/06 04:32:25;;;;;;;109.40;57.58;;;11.00;99.90;;;;;;4937868;28;20537;-63
2023/05/06 04:34:52;;;;;;;121.90;59.40;;;11.00;99.90;;;;;;4953396;28;20666;-63
2023/05/06 04:37:18;;;;;;;289.35;76.15;;;11.00;99.90;;;;;;4954213;28;20046;-63
2023/05/06 04:39:47;;;;;;;461.77;89.47;;;11.00;99.90;;;;;;4953112;28;20130;-64
2023/05/06 04:42:13;;;;;;;588.30;97.07;;;11.00;99.90;;;;;;4986867;28;20050;-63
2023/05/06 04:44:40;;;;;;;393.73;60.50;;;11.00;99.90;;;;;;4953411;28;20061;-63
2023/05/06 04:47:06;;;;;;;257.65;47.15;;;11.20;99.90;;;;;;4955271;28;20587;-63
2023/05/06 04:49:31;;;;;;;460.83;60.05;;;11.10;99.90;;;;;;4953270;28;20053;-63
2023/05/06 04:51:57;;;;;;;359.25;55.67;;;11.30;99.90;;;;;;4953991;28;20074;-63
2023/05/06 04:54:23;;;;;;;361.85;57.30;;;10.90;99.90;;;;;;4953008;28;20034;-63
2023/05/06 04:56:48;;;;;;;293.35;50.25;;;11.10;99.90;;;;;;4952679;28;21041;-63
2023/05/06 04:59:14;;;;;;;471.63;61.33;;;11.00;99.90;;;;;;4935879;28;20412;-64
2023/05/06 05:01:40;;;;;;;246.77;48.42;;;10.90;99.90;;;;;;4951675;28;20133;-63
2023/05/06 05:04:06;;;;;;;208.43;41.58;;;10.90;99.90;;;;;;4970953;28;20433;-63
2023/05/06 05:06:31;;;;;;;292.17;42.97;;;11.10;99.90;;;;;;4950973;28;20676;-64
2023/05/06 05:08:58;;;;;;;226.82;37.17;;;10.70;99.90;;;;;;4952832;28;20129;-62
2023/05/06 05:11:24;;;;;;;292.30;41.65;;;11.00;99.90;;;;;;4954530;28;20120;-65
2023/05/06 05:13:50;;;;;;;224.05;37.80;;;10.70;99.90;;;;;;4952350;28;20046;-63
2023/05/06 05:16:16;;;;;;;176.43;36.03;;;10.70;99.90;;;;;;4984057;28;20298;-63
2023/05/06 05:18:41;;;;;;;187.52;35.25;;;10.90;99.90;;;;;;4968770;28;20541;-63
2023/05/06 05:21:07;;;;;;;109.70;30.95;;;10.70;99.90;;;;;;4953000;28;20054;-63
2023/05/06 05:23:33;;;;;;;124.80;30.33;;;10.60;99.90;;;;;;4954567;28;20535;-63
2023/05/06 05:26:00;;;;;;;382.90;45.38;;;10.80;99.90;;;;;;4984575;28;20050;-63
2023/05/06 05:28:25;;;;;;;352.13;45.03;;;10.70;99.90;;;;;;4954611;28;20604;-63
2023/05/06 05:30:51;;;;;;;325.10;44.75;;;10.90;99.90;;;;;;4952189;28;20061;-64
2023/05/06 05:33:17;;;;;;;322.80;70.40;;;10.80;99.90;;;;;;4952716;28;20068;-63
2023/05/06 05:35:43;;;;;;;375.38;72.43;;;10.80;99.90;;;;;;4953297;28;20129;-63
2023/05/06 05:38:08;;;;;;;314.42;63.13;;;10.80;99.90;;;;;;4952311;28;20042;-64
2023/05/06 05:40:35;;;;;;;243.00;56.80;;;10.90;99.90;;;;;;4953373;28;20315;-63
2023/05/06 05:43:00;;;;;;;309.58;60.85;;;10.90;99.90;;;;;;4952713;28;20846;-64
2023/05/06 05:45:26;;;;;;;283.58;59.05;;;11.10;99.90;;;;;;4935531;28;20048;-63
2023/05/06 05:47:52;;;;;;;246.05;54.78;;;11.00;99.90;;;;;;4935970;28;20046;-63
2023/05/06 05:50:18;;;;;;;326.70;63.33;;;11.10;99.90;;;;;;4947449;28;20144;-63
2023/05/06 05:52:44;;;;;;;221.27;58.15;;;11.10;99.90;;;;;;4936237;28;20460;-63
2023/05/06 05:55:10;;;;;;;231.07;60.60;;;11.20;99.90;;;;;;4938537;28;20374;-63
2023/05/06 05:57:35;;;;;;;156.88;55.80;;;11.10;99.90;;;;;;4951253;28;20043;-64
2023/05/06 06:00:02;;;;;;;152.90;56.22;;;11.40;99.90;;;;;;4969304;28;20436;-65
2023/05/06 06:02:27;;;;;;;181.95;58.15;;;11.30;99.90;;;;;;4938391;28;20062;-65
2023/05/06 06:04:53;;;;;;;137.55;53.33;;;11.40;99.90;;;;;;4952837;28;20933;-65
2023/05/06 06:07:19;;;;;;;140.48;57.85;;;11.60;99.90;;;;;;4937379;28;20306;-65
2023/05/06 06:09:47;;;;;;;152.63;58.15;;;11.50;99.90;;;;;;4969833;28;20034;-66
2023/05/06 06:12:13;;;;;;;135.70;57.28;;;11.60;99.90;;;;;;4937886;28;20043;-65
2023/05/06 06:14:39;;;;;;;142.95;54.85;;;11.60;99.90;;;;;;4936945;28;20822;-65
2023/05/06 06:17:05;;;;;;;124.40;52.53;;;11.70;99.90;;;;;;4953421;28;20175;-65
2023/05/06 06:19:31;;;;;;;107.93;49.97;;;11.90;99.90;;;;;;4953022;28;20054;-65
2023/05/06 06:21:57;;;;;;;90.63;47.22;;;12.00;99.90;;;;;;4952938;28;20465;-65
2023/05/06 06:24:23;;;;;;;81.78;43.25;;;11.70;99.90;;;;;;4935196;28;20090;-66
2023/05/06 06:26:49;;;;;;;81.10;43.83;;;12.10;99.90;;;;;;4954426;28;20039;-65
2023/05/06 06:29:14;;;;;;;73.65;41.65;;;11.70;99.90;;;;;;4952622;28;20054;-65
2023/05/06 06:31:41;;;;;;;76.68;43.58;;;12.10;99.90;;;;;;4939088;28;20053;-65
2023/05/06 06:34:07;;;;;;;78.00;42.65;;;11.80;99.90;;;;;;4952382;28;20424;-65
2023/05/06 06:36:33;;;;;;;72.95;40.35;;;12.10;99.90;;;;;;4983708;28;20042;-66
2023/05/06 06:38:59;;;;;;;72.20;40.00;;;12.20;99.90;;;;;;4936086;28;20476;-65
2023/05/06 06:41:26;;;;;;;75.35;43.30;;;12.30;99.90;;;;;;4955090;28;20482;-65
2023/05/06 06:43:52;;;;;;;69.80;42.53;;;12.00;99.90;;;;;;4952938;28;20082;-65
2023/05/06 06:46:18;;;;;;;57.83;38.60;;;12.20;99.90;;;;;;4952902;28;20043;-65
2023/05/06 06:48:44;;;;;;;62.53;39.72;;;12.40;99.90;;;;;;4937492;28;20073;-65
2023/05/06 06:51:09;;;;;;;60.60;38.00;;;12.50;99.90;;;;;;4939329;28;20421;-66
2023/05/06 06:53:35;;;;;;;53.10;37.45;;;12.30;99.90;;;;;;4972125;28;20039;-66
2023/05/06 06:56:01;;;;;;;53.85;37.17;;;12.20;99.90;;;;;;4954125;28;20546;-65
2023/05/06 06:58:26;;;;;;;53.85;36.72;;;12.70;99.90;;;;;;4954664;28;20038;-65
2023/05/06 07:00:52;;;;;;;40.83;30.13;;;13.00;99.90;;;;;;4954078;28;20045;-65
2023/05/06 07:03:18;;;;;;;38.55;27.23;;;12.90;99.90;;;;;;4937453;28;20441;-65
2023/05/06 07:05:44;;;;;;;34.92;26.10;;;13.20;99.90;;;;;;4952858;28;20294;-65
2023/05/06 07:08:10;;;;;;;35.78;27.50;;;13.40;99.90;;;;;;4971265;28;20058;-65
2023/05/06 07:10:36;;;;;;;39.55;27.25;;;12.90;99.90;;;;;;4956905;28;20572;-64
2023/05/06 07:13:02;;;;;;;33.00;24.88;;;13.40;99.90;;;;;;4953376;28;20039;-66
2023/05/06 07:15:28;;;;;;;30.48;23.35;;;13.00;99.90;;;;;;4952389;28;20042;-65
2023/05/06 07:17:54;;;;;;;27.83;23.70;;;13.30;99.90;;;;;;4934371;28;20057;-65
2023/05/06 07:20:20;;;;;;;29.63;23.63;;;12.70;99.90;;;;;;4938133;28;20345;-65
2023/05/06 07:22:45;;;;;;;30.75;23.60;;;12.90;99.90;;;;;;4957352;28;20136;-65
2023/05/06 07:25:11;;;;;;;28.23;21.83;;;12.70;99.90;;;;;;4989222;28;20336;-65
2023/05/06 07:27:37;;;;;;;32.13;25.10;;;12.80;99.90;;;;;;4940702;28;20650;-65
2023/05/06 07:30:04;;;;;;;36.80;27.75;;;12.90;99.90;;;;;;4956882;28;20309;-65
2023/05/06 07:32:30;;;;;;;37.00;26.58;;;13.00;99.90;;;;;;4956978;28;20055;-65
2023/05/06 07:34:56;;;;;;;34.30;26.52;;;13.10;99.90;;;;;;4956701;28;20257;-65
2023/05/06 07:37:22;;;;;;;37.08;27.85;;;13.00;99.90;;;;;;4974573;28;20045;-65
2023/05/06 07:39:47;;;;;;;27.83;23.50;;;13.00;99.90;;;;;;4957808;28;20042;-67
2023/05/06 07:42:13;;;;;;;29.30;24.77;;;13.00;99.90;;;;;;4976445;28;20043;-65
2023/05/06 07:44:39;;;;;;;28.00;24.40;;;13.20;99.90;;;;;;4958769;28;20245;-65
2023/05/06 07:47:04;;;;;;;30.80;25.75;;;13.00;99.90;;;;;;4941427;28;20038;-65
2023/05/06 07:49:32;;;;;;;24.52;21.02;;;13.50;99.90;;;;;;4956575;28;20046;-65
2023/05/06 07:51:58;;;;;;;25.58;22.85;;;13.50;99.90;;;;;;5005588;28;20576;-65
2023/05/06 07:54:24;;;;;;;34.13;26.05;;;13.20;99.90;;;;;;4972699;28;20129;-64
2023/05/06 07:56:50;;;;;;;30.83;25.77;;;13.50;99.90;;;;;;4956988;28;20038;-65
2023/05/06 07:59:15;;;;;;;33.33;25.77;;;13.30;99.90;;;;;;4972811;28;20050;-65
2023/05/06 08:01:41;;;;;;;29.17;23.25;;;12.90;99.90;;;;;;4973419;28;20063;-64
2023/05/06 08:04:07;;;;;;;32.40;25.33;;;13.10;99.90;;;;;;4973253;28;20050;-65
2023/05/06 08:06:33;;;;;;;29.67;24.50;;;13.20;99.90;;;;;;4973346;28;20116;-65
2023/05/06 08:08:59;;;;;;;28.02;22.08;;;12.70;99.90;;;;;;4957332;28;20231;-65
2023/05/06 08:11:25;;;;;;;26.92;21.15;;;12.80;99.90;;;;;;4956604;28;20225;-65
2023/05/06 08:13:50;;;;;;;26.25;22.05;;;12.90;99.90;;;;;;4956332;28;20070;-65
2023/05/06 08:16:16;;;;;;;29.70;23.58;;;13.20;99.90;;;;;;4972245;28;20294;-64
2023/05/06 08:18:42;;;;;;;28.80;23.00;;;13.20;99.90;;;;;;4972706;28;20143;-65
2023/05/06 08:21:07;;;;;;;29.90;23.23;;;13.30;99.90;;;;;;4972099;28;20348;-65
2023/05/06 08:23:33;;;;;;;29.00;23.95;;;13.00;99.90;;;;;;4972355;28;20197;-65
2023/05/06 08:25:59;;;;;;;33.38;28.80;;;13.30;99.90;;;;;;4973012;28;20042;-65
2023/05/06 08:28:25;;;;;;;28.75;24.58;;;13.30;99.90;;;;;;4972811;28;20042;-65
2023/05/06 08:30:51;;;;;;;27.85;24.83;;;13.70;99.90;;;;;;4971925;28;20464;-65
2023/05/06 08:33:18;;;;;;;26.70;23.88;;;13.30;99.90;;;;;;4956184;28;20294;-65
2023/05/06 08:35:44;;;;;;;26.33;23.02;;;14.00;99.90;;;;;;4971988;28;20038;-63
2023/05/06 08:38:10;;;;;;;29.13;24.48;;;14.20;99.90;;;;;;4987198;28;20146;-62
2023/05/06 08:40:43;;;;;;;25.65;22.13;;;14.50;99.90;;;;;;4956035;28;20046;-66
2023/05/06 08:43:19;;;;;;;23.73;21.13;;;14.10;99.90;;;;;;4972330;28;20061;-66
2023/05/06 08:45:45;;;;;;;28.02;22.73;;;14.80;99.90;;;;;;4972083;28;20053;-66
2023/05/06 08:48:11;;;;;;;23.95;21.35;;;15.00;99.90;;;;;;5005358;28;20050;-65
2023/05/06 08:50:41;;;;;;;24.67;20.85;;;15.20;99.90;;;;;;4972390;28;20595;-64
2023/05/06 08:53:10;;;;;;;21.73;19.42;;;15.30;99.90;;;;;;4972436;28;20512;-64
2023/05/06 08:55:39;;;;;;;22.60;20.20;;;15.10;99.90;;;;;;5003959;28;20289;-64
2023/05/06 08:58:06;;;;;;;23.65;20.90;;;15.00;99.90;;;;;;5004726;28;20531;-64
2023/05/06 09:00:32;;;;;;;19.55;17.48;;;15.50;99.90;;;;;;4955624;28;20507;-65
2023/05/06 09:02:58;;;;;;;20.20;18.02;;;15.20;99.90;;;;;;4988905;28;20050;-64
2023/05/06 09:05:24;;;;;;;20.80;18.58;;;15.50;99.90;;;;;;4955985;28;20053;-65
2023/05/06 09:07:49;;;;;;;21.77;18.90;;;15.00;99.90;;;;;;4972011;28;20085;-64
2023/05/06 09:10:17;;;;;;;19.15;17.25;;;15.20;99.90;;;;;;4972151;28;20046;-64
2023/05/06 09:12:43;;;;;;;17.92;16.13;;;15.40;99.90;;;;;;4971754;28;20061;-64
2023/05/06 09:15:09;;;;;;;20.05;17.95;;;15.70;99.90;;;;;;4956015;28;20050;-64
2023/05/06 09:17:35;;;;;;;19.70;17.60;;;15.30;99.90;;;;;;4971908;28;20555;-64
2023/05/06 09:20:01;;;;;;;17.58;15.73;;;15.50;99.90;;;;;;4971862;28;20290;-65
2023/05/06 09:22:28;;;;;;;18.10;15.70;;;16.00;99.90;;;;;;4971436;28;20167;-65
2023/05/06 09:24:56;;;;;;;17.38;15.57;;;16.80;99.90;;;;;;4971663;28;20440;-65
2023/05/06 09:27:28;;;;;;;17.63;15.77;;;16.50;99.90;;;;;;4954804;28;20050;-64
2023/05/06 09:30:10;;;;;;;17.17;15.47;;;17.00;99.90;;;;;;4971597;28;20497;-64
2023/05/06 09:32:37;;;;;;;16.98;15.27;;;16.70;99.90;;;;;;4971229;28;20050;-65
2023/05/06 09:35:04;;;;;;;17.02;15.32;;;17.10;99.90;;;;;;4954797;28;20346;-64
2023/05/06 09:37:30;;;;;;;15.30;13.70;;;17.30;99.90;;;;;;4971179;28;20560;-64
2023/05/06 09:39:58;;;;;;;14.85;13.43;;;17.70;99.90;;;;;;4955488;28;20045;-64
2023/05/06 09:42:25;;;;;;;15.38;13.77;;;17.50;99.90;;;;;;4971439;28;20078;-65
2023/05/06 09:44:56;;;;;;;13.93;12.50;;;17.60;99.90;;;;;;4970905;28;20325;-65
2023/05/06 09:47:27;;;;;;;17.27;14.02;;;17.90;99.90;;;;;;4971055;28;20512;-65
2023/05/06 09:50:01;;;;;;;13.45;12.10;;;18.10;99.90;;;;;;4971136;28;20117;-64
2023/05/06 09:52:27;;;;;;;13.82;12.43;;;18.00;99.90;;;;;;4971787;28;20463;-65
2023/05/06 09:54:53;;;;;;;13.43;11.80;;;18.10;99.90;;;;;;4939636;28;20049;-65
2023/05/06 09:57:21;;;;;;;15.13;13.68;;;17.60;99.90;;;;;;4971200;28;20616;-64
2023/05/06 09:59:47;;;;;;;13.50;12.10;;;17.80;99.90;;;;;;4939095;28;20116;-64
2023/05/06 10:02:13;;;;;;;14.13;12.48;;;17.90;99.90;;;;;;4971365;28;20137;-65
2023/05/06 10:04:41;;;;;;;13.02;11.73;;;18.10;99.90;;;;;;4970982;28;20289;-65
2023/05/06 10:07:13;;;;;;;13.00;11.68;;;18.20;99.90;;;;;;5004079;28;20052;-65
2023/05/06 10:09:40;;;;;;;12.48;10.43;;;18.30;99.90;;;;;;4952820;28;20045;-65
2023/05/06 10:12:09;;;;;;;13.63;12.23;;;18.20;99.90;;;;;;4970100;28;20094;-65
2023/05/06 10:14:36;;;;;;;12.75;11.52;;;18.10;99.90;;;;;;4924042;28;20039;-65
2023/05/06 10:17:07;;;;;;;13.85;12.45;;;18.60;99.90;;;;;;4947522;28;20214;-65
2023/05/06 10:19:33;;;;;;;14.25;12.88;;;18.80;99.90;;;;;;4971265;28;20551;-65
2023/05/06 10:22:10;;;;;;;12.90;11.60;;;18.80;99.90;;;;;;4971101;28;20063;-65
2023/05/06 10:24:46;;;;;;;14.35;12.85;;;19.00;99.90;;;;;;5003358;28;20700;-65
2023/05/06 10:27:15;;;;;;;12.98;11.68;;;19.10;99.90;;;;;;5003312;28;20062;-65
2023/05/06 10:29:42;;;;;;;11.55;10.45;;;19.20;99.90;;;;;;4971548;28;20505;-65
2023/05/06 10:32:09;;;;;;;12.73;11.43;;;18.70;99.90;;;;;;4954482;28;20092;-65
2023/05/06 10:34:40;;;;;;;12.93;10.52;;;18.70;99.90;;;;;;4970779;28;20662;-65
2023/05/06 10:37:08;;;;;;;11.10;9.82;;;18.90;99.90;;;;;;4954610;28;20693;-65
2023/05/06 10:39:34;;;;;;;10.48;9.38;;;19.40;99.90;;;;;;5003332;28;20097;-66
2023/05/06 10:42:01;;;;;;;11.35;9.00;;;19.60;99.90;;;;;;5003886;28;20046;-67
2023/05/06 10:44:59;;;;;;;9.52;8.63;;;19.70;99.90;;;;;;5003624;28;20046;-66
2023/05/06 10:47:25;;;;;;;10.15;9.15;;;19.90;99.90;;;;;;5002821;28;20047;-66
2023/05/06 10:50:23;;;;;;;10.55;9.52;;;20.00;99.90;;;;;;4987469;28;20054;-65
2023/05/06 10:52:56;;;;;;;10.30;8.88;;;20.10;99.90;;;;;;5003207;28;20470;-66
2023/05/06 10:55:28;;;;;;;9.63;8.73;;;20.10;99.90;;;;;;5004265;28;20378;-66
2023/05/06 10:57:55;;;;;;;8.60;7.80;;;20.30;1.00;;;;;;4990467;28;20043;-66
2023/05/06 11:00:22;;;;;;;10.70;9.60;;;20.20;99.90;;;;;;4990970;28;20034;-66
2023/05/06 11:02:55;;;;;;;10.43;8.77;;;20.30;1.00;;;;;;4990454;28;20630;-67
2023/05/06 11:05:23;;;;;;;10.35;9.25;;;20.30;99.90;;;;;;4990478;28;20042;-65
2023/05/06 11:07:51;;;;;;;10.25;8.85;;;20.20;99.90;;;;;;4990862;28;20559;-66
2023/05/06 11:10:31;;;;;;;9.65;8.75;;;20.20;99.90;;;;;;4957939;28;20046;-66
2023/05/06 11:12:57;;;;;;;8.95;8.05;;;20.10;99.90;;;;;;4989696;28;20480;-66
2023/05/06 11:15:39;;;;;;;9.88;8.90;;;20.00;99.90;;;;;;4973629;28;20046;-66
2023/05/06 11:18:26;;;;;;;9.60;8.70;;;20.00;99.90;;;;;;4990328;28;20059;-66
2023/05/06 11:21:01;;;;;;;8.13;7.32;;;19.80;99.90;;;;;;4989436;28;20155;-66
2023/05/06 11:23:48;;;;;;;8.50;7.70;;;19.80;99.90;;;;;;4989637;28;20038;-66
2023/05/06 11:26:14;;;;;;;8.07;7.25;;;19.60;99.90;;;;;;4973678;28;20058;-66
2023/05/06 11:28:45;;;;;;;7.65;6.20;;;19.70;99.90;;;;;;4990224;28;20057;-67
2023/05/06 11:31:12;;;;;;;8.82;7.93;;;19.70;99.90;;;;;;4989422;28;20279;-66
2023/05/06 11:33:45;;;;;;;8.50;7.70;;;19.60;99.90;;;;;;4957282;28;20397;-66
2023/05/06 11:36:16;;;;;;;11.07;9.05;;;19.60;99.90;;;;;;5006603;28;20082;-66
2023/05/06 11:38:47;;;;;;;8.50;7.70;;;19.70;99.90;;;;;;5005775;28;20090;-66
2023/05/06 11:41:14;;;;;;;7.88;7.25;;;19.80;99.90;;;;;;4989888;28;20035;-66
2023/05/06 11:43:51;;;;;;;7.70;6.88;;;19.80;99.90;;;;;;4989255;28;20054;-67
2023/05/06 11:46:22;;;;;;;7.93;7.13;;;19.90;99.90;;;;;;4994920;28;20050;-66
2023/05/06 11:48:49;;;;;;;7.15;6.45;;;20.10;99.90;;;;;;4957900;28;20047;-66
2023/05/06 11:51:21;;;;;;;6.93;6.13;;;20.20;99.90;;;;;;4972834;28;20037;-66
2023/05/06 11:53:48;;;;;;;6.55;5.95;;;20.40;99.90;;;;;;4973596;28;20050;-66
2023/05/06 11:56:14;;;;;;;6.60;5.85;;;20.30;99.90;;;;;;4989733;28;20050;-66
2023/05/06 11:58:39;;;;;;;6.50;5.93;;;20.70;99.90;;;;;;4969262;28;20076;-66
2023/05/06 12:01:05;;;;;;;6.82;5.72;;;20.80;99.90;;;;;;4937291;28;20039;-66
2023/05/06 12:03:32;;;;;;;5.72;5.22;;;21.00;99.90;;;;;;4971337;28;20073;-66
2023/05/06 12:05:58;;;;;;;6.47;5.78;;;21.10;99.90;;;;;;4942081;28;20355;-66
2023/05/06 12:08:28;;;;;;;6.88;6.07;;;21.10;99.90;;;;;;4954795;28;20366;-67
2023/05/06 12:10:57;;;;;;;6.70;5.55;;;20.80;99.90;;;;;;4991370;28;20042;-66
2023/05/06 12:13:23;;;;;;;6.10;5.50;;;20.50;99.90;;;;;;4955786;28;20177;-66
2023/05/06 12:15:49;;;;;;;5.85;5.25;;;20.20;99.90;;;;;;4988027;28;20050;-67
2023/05/06 12:18:15;;;;;;;6.60;5.95;;;19.90;99.90;;;;;;4967699;28;20074;-66
2023/05/06 12:20:41;;;;;;;7.43;6.13;;;19.60;99.90;;;;;;4938447;28;20274;-66
2023/05/06 12:23:11;;;;;;;6.30;5.70;;;19.30;99.90;;;;;;4954315;28;20512;-67
2023/05/06 12:25:38;;;;;;;7.10;6.13;;;19.20;99.90;;;;;;5005321;28;20049;-66